sensor_id;sensor_type;location;lat;lon;timestamp;pressure;altitude;pressure_sealevel;temperature;humidity
4598;BME280;62772;48.646;8.906;2022-09-09T00:04:15;95978.84;;;14.07;94.24
4598;BME280;62772;48.646;8.906;2022-09-09T00:09:22;95974.75;;;13.97;95.35
4598;BME280;62772;48.646;8.906;2022-09-09T00:14:35;95973.09;;;13.81;94.62
4598;BME280;62772;48.646;8.906;2022-09-09T00:19:43;95973.56;;;13.83;96.15
4598;BME280;62772;48.646;8.906;2022-09-09T00:24:47;95970.38;;;13.52;96.19
4598;BME280;62772;48.646;8.906;2022-09-09T00:29:56;95955.47;;;13.55;96.46
4598;BME280;62772;48.646;8.906;2022-09-09T00:35:02;95968.19;;;13.83;96.96
4598;BME280;62772;48.646;8.906;2022-09-09T00:40:11;95956.97;;;13.93;97.47
4598;BME280;62772;48.646;8.906;2022-09-09T00:45:42;95963.41;;;14.04;95.65
4598;BME280;62772;48.646;8.906;2022-09-09T00:50:55;95954.09;;;13.86;96.95
4598;BME280;62772;48.646;8.906;2022-09-09T00:56:03;95957.56;;;13.74;97.37
4598;BME280;62772;48.646;8.906;2022-09-09T01:01:10;95966.34;;;13.58;99.53
4598;BME280;62772;48.646;8.906;2022-09-09T01:06:15;95967.84;;;13.84;98.98
4598;BME280;62772;48.646;8.906;2022-09-09T01:11:21;95983.63;;;13.73;99.93
4598;BME280;62772;48.646;8.906;2022-09-09T01:16:27;95973.47;;;13.54;100.00
4598;BME280;62772;48.646;8.906;2022-09-09T01:21:37;95970.47;;;13.68;99.27
4598;BME280;62772;48.646;8.906;2022-09-09T01:26:44;95974.22;;;13.79;99.08
4598;BME280;62772;48.646;8.906;2022-09-09T01:31:56;95980.38;;;12.94;100.00
4598;BME280;62772;48.646;8.906;2022-09-09T01:36:59;95984.44;;;12.66;100.00
4598;BME280;62772;48.646;8.906;2022-09-09T01:42:08;95968.03;;;13.38;100.00
4598;BME280;62772;48.646;8.906;2022-09-09T01:47:09;95964.75;;;13.33;100.00
4598;BME280;62772;48.646;8.906;2022-09-09T01:52:25;95985.66;;;13.52;99.88
4598;BME280;62772;48.646;8.906;2022-09-09T01:57:33;95980.19;;;13.48;99.47
4598;BME280;62772;48.646;8.906;2022-09-09T02:02:38;95970.47;;;13.43;100.00
4598;BME280;62772;48.646;8.906;2022-09-09T02:07:48;95961.66;;;13.55;99.71
4598;BME280;62772;48.646;8.906;2022-09-09T02:13:11;95972.16;;;13.48;98.17
4598;BME280;62772;48.646;8.906;2022-09-09T02:18:14;95982.88;;;13.36;99.63
4598;BME280;62772;48.646;8.906;2022-09-09T02:23:19;95987.00;;;13.46;97.98
4598;BME280;62772;48.646;8.906;2022-09-09T02:28:29;95982.19;;;13.39;98.55
4598;BME280;62772;48.646;8.906;2022-09-09T02:33:36;95982.09;;;13.48;98.70
4598;BME280;62772;48.646;8.906;2022-09-09T02:38:44;95984.78;;;13.35;99.29
4598;BME280;62772;48.646;8.906;2022-09-09T02:43:51;95971.91;;;13.29;100.00
4598;BME280;62772;48.646;8.906;2022-09-09T02:49:00;95969.41;;;12.99;100.00
4598;BME280;62772;48.646;8.906;2022-09-09T02:54:10;95957.94;;;13.23;99.69
4598;BME280;62772;48.646;8.906;2022-09-09T02:59:21;95966.63;;;13.20;100.00
4598;BME280;62772;48.646;8.906;2022-09-09T03:04:22;95970.34;;;13.03;100.00
4598;BME280;62772;48.646;8.906;2022-09-09T03:09:26;95977.09;;;12.88;100.00
4598;BME280;62772;48.646;8.906;2022-09-09T03:14:30;95961.59;;;13.18;100.00
4598;BME280;62772;48.646;8.906;2022-09-09T03:19:31;95965.38;;;12.93;100.00
4598;BME280;62772;48.646;8.906;2022-09-09T03:24:33;95967.31;;;13.04;100.00
4598;BME280;62772;48.646;8.906;2022-09-09T03:29:40;95962.47;;;12.40;100.00
4598;BME280;62772;48.646;8.906;2022-09-09T03:34:45;95966.38;;;12.42;100.00
4598;BME280;62772;48.646;8.906;2022-09-09T03:39:48;95968.06;;;12.34;100.00
4598;BME280;62772;48.646;8.906;2022-09-09T03:44:53;95979.81;;;12.55;100.00
4598;BME280;62772;48.646;8.906;2022-09-09T03:49:58;95972.22;;;12.44;100.00
4598;BME280;62772;48.646;8.906;2022-09-09T03:54:58;95976.31;;;12.42;100.00
4598;BME280;62772;48.646;8.906;2022-09-09T04:00:03;95975.06;;;12.60;100.00
4598;BME280;62772;48.646;8.906;2022-09-09T04:05:07;95975.19;;;12.76;100.00
4598;BME280;62772;48.646;8.906;2022-09-09T04:10:08;95974.72;;;12.74;100.00
4598;BME280;62772;48.646;8.906;2022-09-09T04:15:15;95976.56;;;12.82;100.00
4598;BME280;62772;48.646;8.906;2022-09-09T04:20:18;95980.34;;;12.81;100.00
4598;BME280;62772;48.646;8.906;2022-09-09T04:25:19;95968.22;;;12.63;100.00
4598;BME280;62772;48.646;8.906;2022-09-09T04:30:24;95973.81;;;12.58;100.00
4598;BME280;62772;48.646;8.906;2022-09-09T04:35:25;95976.81;;;12.56;100.00
4598;BME280;62772;48.646;8.906;2022-09-09T04:40:28;95975.41;;;12.71;100.00
4598;BME280;62772;48.646;8.906;2022-09-09T04:45:32;95974.28;;;12.72;100.00
4598;BME280;62772;48.646;8.906;2022-09-09T04:50:34;95983.69;;;12.78;100.00
4598;BME280;62772;48.646;8.906;2022-09-09T04:55:35;95992.44;;;13.00;100.00
4598;BME280;62772;48.646;8.906;2022-09-09T05:00:39;95996.88;;;12.96;100.00
4598;BME280;62772;48.646;8.906;2022-09-09T05:05:42;95988.06;;;12.95;100.00
4598;BME280;62772;48.646;8.906;2022-09-09T05:10:43;95986.13;;;12.83;100.00
4598;BME280;62772;48.646;8.906;2022-09-09T05:15:54;95986.84;;;12.93;100.00
4598;BME280;62772;48.646;8.906;2022-09-09T05:20:58;95990.47;;;12.76;100.00
4598;BME280;62772;48.646;8.906;2022-09-09T05:26:00;95998.47;;;12.97;100.00
4598;BME280;62772;48.646;8.906;2022-09-09T05:31:07;95997.84;;;12.66;100.00
4598;BME280;62772;48.646;8.906;2022-09-09T05:36:11;96003.03;;;12.96;100.00
4598;BME280;62772;48.646;8.906;2022-09-09T05:41:14;96009.97;;;12.97;100.00
4598;BME280;62772;48.646;8.906;2022-09-09T05:46:23;96014.31;;;13.02;100.00
4598;BME280;62772;48.646;8.906;2022-09-09T05:51:27;96009.06;;;13.05;100.00
4598;BME280;62772;48.646;8.906;2022-09-09T05:56:31;96012.41;;;13.02;100.00
4598;BME280;62772;48.646;8.906;2022-09-09T06:01:36;96007.88;;;13.03;100.00
4598;BME280;62772;48.646;8.906;2022-09-09T06:06:41;96006.63;;;13.25;100.00
4598;BME280;62772;48.646;8.906;2022-09-09T06:11:52;96009.53;;;13.20;100.00
4598;BME280;62772;48.646;8.906;2022-09-09T06:16:58;96020.25;;;13.20;100.00
4598;BME280;62772;48.646;8.906;2022-09-09T06:22:03;96015.84;;;13.36;100.00
4598;BME280;62772;48.646;8.906;2022-09-09T06:27:08;96016.53;;;13.33;100.00
4598;BME280;62772;48.646;8.906;2022-09-09T06:32:13;96027.88;;;13.30;100.00
4598;BME280;62772;48.646;8.906;2022-09-09T06:37:14;96024.78;;;13.40;100.00
4598;BME280;62772;48.646;8.906;2022-09-09T06:42:20;96022.09;;;13.40;100.00
4598;BME280;62772;48.646;8.906;2022-09-09T06:47:41;96011.28;;;13.49;100.00
4598;BME280;62772;48.646;8.906;2022-09-09T06:52:45;96018.41;;;13.57;100.00
4598;BME280;62772;48.646;8.906;2022-09-09T06:57:47;96025.91;;;13.52;100.00
4598;BME280;62772;48.646;8.906;2022-09-09T07:02:58;96019.28;;;13.61;100.00
4598;BME280;62772;48.646;8.906;2022-09-09T07:07:59;96014.16;;;13.56;100.00
4598;BME280;62772;48.646;8.906;2022-09-09T07:13:01;96031.69;;;13.91;100.00
4598;BME280;62772;48.646;8.906;2022-09-09T07:18:05;96023.66;;;13.91;100.00
4598;BME280;62772;48.646;8.906;2022-09-09T07:23:06;96023.97;;;14.02;100.00
4598;BME280;62772;48.646;8.906;2022-09-09T07:28:07;96023.16;;;14.13;100.00
4598;BME280;62772;48.646;8.906;2022-09-09T07:33:12;96025.59;;;14.19;100.00
4598;BME280;62772;48.646;8.906;2022-09-09T07:38:13;96020.41;;;14.38;100.00
4598;BME280;62772;48.646;8.906;2022-09-09T07:43:17;96033.59;;;14.43;100.00
4598;BME280;62772;48.646;8.906;2022-09-09T07:48:22;96030.94;;;14.59;100.00
4598;BME280;62772;48.646;8.906;2022-09-09T07:53:23;96028.00;;;14.77;100.00
4598;BME280;62772;48.646;8.906;2022-09-09T07:58:24;96029.22;;;14.95;100.00
4598;BME280;62772;48.646;8.906;2022-09-09T08:03:27;96039.50;;;15.05;100.00
4598;BME280;62772;48.646;8.906;2022-09-09T08:08:28;96042.47;;;15.32;100.00
4598;BME280;62772;48.646;8.906;2022-09-09T08:13:30;96043.06;;;15.57;99.33
4598;BME280;62772;48.646;8.906;2022-09-09T08:18:34;96054.53;;;15.70;97.25
4598;BME280;62772;48.646;8.906;2022-09-09T08:23:36;96052.31;;;15.76;95.77
4598;BME280;62772;48.646;8.906;2022-09-09T08:28:37;96053.97;;;15.96;94.30
4598;BME280;62772;48.646;8.906;2022-09-09T08:33:41;96059.31;;;16.12;95.15
4598;BME280;62772;48.646;8.906;2022-09-09T08:38:43;96057.44;;;16.32;93.17
4598;BME280;62772;48.646;8.906;2022-09-09T08:43:49;96076.81;;;16.38;94.60
4598;BME280;62772;48.646;8.906;2022-09-09T08:48:58;96114.63;;;15.90;100.00
4598;BME280;62772;48.646;8.906;2022-09-09T08:54:03;96072.22;;;15.23;100.00
4598;BME280;62772;48.646;8.906;2022-09-09T08:59:09;96062.72;;;14.41;100.00
4598;BME280;62772;48.646;8.906;2022-09-09T09:04:44;96077.75;;;14.99;100.00
4598;BME280;62772;48.646;8.906;2022-09-09T09:09:56;96073.53;;;14.85;100.00
4598;BME280;62772;48.646;8.906;2022-09-09T09:15:11;96069.28;;;14.44;100.00
4598;BME280;62772;48.646;8.906;2022-09-09T09:20:21;96067.31;;;14.97;100.00
4598;BME280;62772;48.646;8.906;2022-09-09T09:25:30;96062.50;;;14.75;100.00
4598;BME280;62772;48.646;8.906;2022-09-09T09:30:38;96044.78;;;15.02;100.00
4598;BME280;62772;48.646;8.906;2022-09-09T09:35:45;96042.28;;;15.25;100.00
4598;BME280;62772;48.646;8.906;2022-09-09T09:40:50;96032.91;;;15.51;100.00
4598;BME280;62772;48.646;8.906;2022-09-09T09:45:51;96037.63;;;16.05;100.00
4598;BME280;62772;48.646;8.906;2022-09-09T09:50:56;96026.44;;;15.87;100.00
4598;BME280;62772;48.646;8.906;2022-09-09T09:56:01;96021.69;;;16.16;100.00
4598;BME280;62772;48.646;8.906;2022-09-09T10:01:03;96025.47;;;16.31;100.00
4598;BME280;62772;48.646;8.906;2022-09-09T10:06:08;96025.19;;;16.36;100.00
4598;BME280;62772;48.646;8.906;2022-09-09T10:11:26;96022.97;;;16.61;100.00
4598;BME280;62772;48.646;8.906;2022-09-09T10:16:41;96020.00;;;16.66;97.43
4598;BME280;62772;48.646;8.906;2022-09-09T10:22:02;96019.72;;;16.32;96.74
4598;BME280;62772;48.646;8.906;2022-09-09T10:27:13;96015.66;;;16.62;99.90
4598;BME280;62772;48.646;8.906;2022-09-09T10:32:30;96019.56;;;16.64;92.48
4598;BME280;62772;48.646;8.906;2022-09-09T10:37:45;96017.97;;;17.26;91.30
4598;BME280;62772;48.646;8.906;2022-09-09T10:42:50;96026.38;;;17.44;85.20
4598;BME280;62772;48.646;8.906;2022-09-09T10:48:01;96030.09;;;17.12;86.84
4598;BME280;62772;48.646;8.906;2022-09-09T10:53:14;96040.19;;;16.76;85.05
4598;BME280;62772;48.646;8.906;2022-09-09T10:58:23;96054.56;;;16.61;86.15
4598;BME280;62772;48.646;8.906;2022-09-09T11:03:28;96073.03;;;16.23;86.04
4598;BME280;62772;48.646;8.906;2022-09-09T11:08:38;96072.56;;;15.22;100.00
4598;BME280;62772;48.646;8.906;2022-09-09T11:13:42;96083.22;;;15.18;98.49
4598;BME280;62772;48.646;8.906;2022-09-09T11:18:46;96080.22;;;14.92;99.56
4598;BME280;62772;48.646;8.906;2022-09-09T11:23:53;96067.25;;;14.53;100.00
4598;BME280;62772;48.646;8.906;2022-09-09T11:29:06;96056.38;;;14.21;100.00
4598;BME280;62772;48.646;8.906;2022-09-09T11:34:27;96049.81;;;14.47;100.00
4598;BME280;62772;48.646;8.906;2022-09-09T11:39:48;96052.44;;;14.72;100.00
4598;BME280;62772;48.646;8.906;2022-09-09T11:44:53;96049.28;;;15.14;100.00
4598;BME280;62772;48.646;8.906;2022-09-09T11:49:55;96059.91;;;15.38;98.60
4598;BME280;62772;48.646;8.906;2022-09-09T11:55:25;96058.06;;;15.27;100.00
4598;BME280;62772;48.646;8.906;2022-09-09T12:00:35;96047.66;;;15.57;96.99
4598;BME280;62772;48.646;8.906;2022-09-09T12:05:39;96047.16;;;15.83;97.76
4598;BME280;62772;48.646;8.906;2022-09-09T12:10:53;96048.38;;;16.21;100.00
4598;BME280;62772;48.646;8.906;2022-09-09T12:15:56;96048.16;;;16.30;93.77
4598;BME280;62772;48.646;8.906;2022-09-09T12:21:02;96039.13;;;16.22;91.77
4598;BME280;62772;48.646;8.906;2022-09-09T12:31:39;96031.44;;;16.40;88.63
4598;BME280;62772;48.646;8.906;2022-09-09T12:36:43;96029.59;;;16.64;90.68
4598;BME280;62772;48.646;8.906;2022-09-09T12:41:54;96030.41;;;17.07;90.38
4598;BME280;62772;48.646;8.906;2022-09-09T12:46:59;96013.97;;;17.39;85.75
4598;BME280;62772;48.646;8.906;2022-09-09T12:52:02;96014.78;;;17.66;81.18
4598;BME280;62772;48.646;8.906;2022-09-09T12:57:10;96011.81;;;17.75;77.04
4598;BME280;62772;48.646;8.906;2022-09-09T13:02:18;96007.56;;;17.74;76.51
4598;BME280;62772;48.646;8.906;2022-09-09T13:07:20;95995.19;;;17.73;74.01
4598;BME280;62772;48.646;8.906;2022-09-09T13:12:24;95989.53;;;17.82;71.91
4598;BME280;62772;48.646;8.906;2022-09-09T13:17:26;95986.75;;;17.78;72.19
4598;BME280;62772;48.646;8.906;2022-09-09T13:22:31;95998.81;;;17.84;68.68
4598;BME280;62772;48.646;8.906;2022-09-09T13:27:38;95987.91;;;18.04;69.27
4598;BME280;62772;48.646;8.906;2022-09-09T13:32:39;95990.31;;;18.09;69.06
4598;BME280;62772;48.646;8.906;2022-09-09T13:37:40;95983.47;;;18.19;67.99
4598;BME280;62772;48.646;8.906;2022-09-09T13:42:46;95978.22;;;18.29;67.01
4598;BME280;62772;48.646;8.906;2022-09-09T13:47:46;95973.75;;;18.44;65.95
4598;BME280;62772;48.646;8.906;2022-09-09T13:52:54;95965.53;;;18.37;62.33
4598;BME280;62772;48.646;8.906;2022-09-09T13:57:58;95957.63;;;18.55;60.77
4598;BME280;62772;48.646;8.906;2022-09-09T14:03:01;95966.19;;;18.61;61.83
4598;BME280;62772;48.646;8.906;2022-09-09T14:08:03;95965.56;;;18.75;58.26
4598;BME280;62772;48.646;8.906;2022-09-09T14:13:07;95966.38;;;18.79;58.30
4598;BME280;62772;48.646;8.906;2022-09-09T14:18:11;95960.84;;;18.64;57.14
4598;BME280;62772;48.646;8.906;2022-09-09T14:23:12;95961.59;;;18.65;58.57
4598;BME280;62772;48.646;8.906;2022-09-09T14:28:15;95960.53;;;18.77;58.05
4598;BME280;62772;48.646;8.906;2022-09-09T14:33:16;95951.63;;;18.73;56.92
4598;BME280;62772;48.646;8.906;2022-09-09T14:38:17;95970.22;;;18.78;57.36
4598;BME280;62772;48.646;8.906;2022-09-09T14:43:21;95968.03;;;18.87;58.00
4598;BME280;62772;48.646;8.906;2022-09-09T14:48:22;95969.50;;;18.81;59.11
4598;BME280;62772;48.646;8.906;2022-09-09T14:53:22;95961.81;;;18.87;59.29
4598;BME280;62772;48.646;8.906;2022-09-09T14:58:30;95957.63;;;18.93;59.06
4598;BME280;62772;48.646;8.906;2022-09-09T15:03:31;95959.59;;;18.96;58.77
4598;BME280;62772;48.646;8.906;2022-09-09T15:08:32;95961.25;;;19.08;60.59
4598;BME280;62772;48.646;8.906;2022-09-09T15:13:36;95958.56;;;19.08;60.27
4598;BME280;62772;48.646;8.906;2022-09-09T15:18:41;95963.00;;;18.85;59.53
4598;BME280;62772;48.646;8.906;2022-09-09T15:23:45;95951.81;;;18.87;56.40
4598;BME280;62772;48.646;8.906;2022-09-09T15:28:50;95958.91;;;18.65;56.02
4598;BME280;62772;48.646;8.906;2022-09-09T15:33:52;95956.31;;;18.42;57.70
4598;BME280;62772;48.646;8.906;2022-09-09T15:38:53;95966.66;;;18.33;58.90
4598;BME280;62772;48.646;8.906;2022-09-09T15:43:57;95977.16;;;18.07;58.13
4598;BME280;62772;48.646;8.906;2022-09-09T15:49:03;95970.19;;;18.06;58.45
4598;BME280;62772;48.646;8.906;2022-09-09T15:54:04;95989.44;;;18.01;59.32
4598;BME280;62772;48.646;8.906;2022-09-09T15:59:08;95994.66;;;18.17;59.76
4598;BME280;62772;48.646;8.906;2022-09-09T16:04:10;96015.09;;;17.88;62.19
4598;BME280;62772;48.646;8.906;2022-09-09T16:09:11;96015.03;;;17.84;64.17
4598;BME280;62772;48.646;8.906;2022-09-09T16:14:14;96020.69;;;17.75;63.13
4598;BME280;62772;48.646;8.906;2022-09-09T16:19:19;96037.13;;;17.17;61.00
4598;BME280;62772;48.646;8.906;2022-09-09T16:24:20;96028.94;;;16.71;64.23
4598;BME280;62772;48.646;8.906;2022-09-09T16:29:24;96036.47;;;16.61;67.74
4598;BME280;62772;48.646;8.906;2022-09-09T16:34:27;96035.16;;;16.75;69.35
4598;BME280;62772;48.646;8.906;2022-09-09T16:39:28;96025.44;;;16.70;67.72
4598;BME280;62772;48.646;8.906;2022-09-09T16:44:31;96028.84;;;16.67;69.05
4598;BME280;62772;48.646;8.906;2022-09-09T16:49:32;96026.25;;;16.71;69.90
4598;BME280;62772;48.646;8.906;2022-09-09T16:54:32;96034.59;;;16.65;70.62
4598;BME280;62772;48.646;8.906;2022-09-09T16:59:36;96040.72;;;16.62;71.52
4598;BME280;62772;48.646;8.906;2022-09-09T17:04:37;96038.44;;;16.64;73.83
4598;BME280;62772;48.646;8.906;2022-09-09T17:09:39;96041.34;;;16.17;73.70
4598;BME280;62772;48.646;8.906;2022-09-09T17:14:42;96035.28;;;16.04;75.90
4598;BME280;62772;48.646;8.906;2022-09-09T17:19:43;96041.69;;;15.80;78.54
4598;BME280;62772;48.646;8.906;2022-09-09T17:24:44;96031.34;;;15.82;78.68
4598;BME280;62772;48.646;8.906;2022-09-09T17:29:48;96041.06;;;15.70;80.31
4598;BME280;62772;48.646;8.906;2022-09-09T17:34:49;96057.63;;;15.72;83.21
4598;BME280;62772;48.646;8.906;2022-09-09T17:39:49;96058.06;;;15.90;81.74
4598;BME280;62772;48.646;8.906;2022-09-09T17:44:53;96054.94;;;15.88;82.80
4598;BME280;62772;48.646;8.906;2022-09-09T17:49:53;96056.00;;;15.52;84.49
4598;BME280;62772;48.646;8.906;2022-09-09T17:54:54;96069.28;;;15.92;84.71
4598;BME280;62772;48.646;8.906;2022-09-09T18:00:17;96074.66;;;16.08;82.66
4598;BME280;62772;48.646;8.906;2022-09-09T18:05:19;96077.94;;;16.37;80.72
4598;BME280;62772;48.646;8.906;2022-09-09T18:10:20;96069.69;;;16.10;80.31
4598;BME280;62772;48.646;8.906;2022-09-09T18:15:23;96065.53;;;16.32;80.94
4598;BME280;62772;48.646;8.906;2022-09-09T18:20:24;96071.97;;;16.28;81.23
4598;BME280;62772;48.646;8.906;2022-09-09T18:25:25;96064.25;;;16.46;84.85
4598;BME280;62772;48.646;8.906;2022-09-09T18:30:28;96073.91;;;16.47;87.49
4598;BME280;62772;48.646;8.906;2022-09-09T18:35:31;96084.41;;;15.81;87.95
4598;BME280;62772;48.646;8.906;2022-09-09T18:40:32;96090.38;;;15.90;88.97
4598;BME280;62772;48.646;8.906;2022-09-09T18:45:37;96102.16;;;15.38;87.86
4598;BME280;62772;48.646;8.906;2022-09-09T18:50:37;96097.31;;;15.44;87.22
4598;BME280;62772;48.646;8.906;2022-09-09T18:55:38;96094.78;;;15.51;86.21
4598;BME280;62772;48.646;8.906;2022-09-09T19:00:44;96091.50;;;15.73;86.38
4598;BME280;62772;48.646;8.906;2022-09-09T19:05:45;96093.88;;;15.59;85.05
4598;BME280;62772;48.646;8.906;2022-09-09T19:10:46;96097.75;;;15.46;87.62
4598;BME280;62772;48.646;8.906;2022-09-09T19:15:50;96099.94;;;15.72;85.79
4598;BME280;62772;48.646;8.906;2022-09-09T19:20:51;96104.63;;;15.75;85.83
4598;BME280;62772;48.646;8.906;2022-09-09T19:25:51;96111.81;;;15.71;85.43
4598;BME280;62772;48.646;8.906;2022-09-09T19:30:55;96107.00;;;15.76;85.42
4598;BME280;62772;48.646;8.906;2022-09-09T19:35:57;96110.09;;;15.47;86.26
4598;BME280;62772;48.646;8.906;2022-09-09T19:41:02;96114.50;;;15.39;87.26
4598;BME280;62772;48.646;8.906;2022-09-09T19:46:07;96120.31;;;15.57;86.20
4598;BME280;62772;48.646;8.906;2022-09-09T19:51:10;96126.84;;;15.40;86.87
4598;BME280;62772;48.646;8.906;2022-09-09T19:56:11;96132.13;;;15.52;86.73
4598;BME280;62772;48.646;8.906;2022-09-09T20:01:16;96140.38;;;15.44;86.39
4598;BME280;62772;48.646;8.906;2022-09-09T20:06:19;96133.94;;;15.32;86.52
4598;BME280;62772;48.646;8.906;2022-09-09T20:11:21;96146.16;;;15.30;86.24
4598;BME280;62772;48.646;8.906;2022-09-09T20:16:27;96149.38;;;15.19;86.21
4598;BME280;62772;48.646;8.906;2022-09-09T20:21:30;96143.94;;;14.63;88.58
4598;BME280;62772;48.646;8.906;2022-09-09T20:26:31;96149.16;;;14.84;89.32
4598;BME280;62772;48.646;8.906;2022-09-09T20:31:39;96142.03;;;14.63;90.81
4598;BME280;62772;48.646;8.906;2022-09-09T20:36:42;96146.53;;;14.34;90.05
4598;BME280;62772;48.646;8.906;2022-09-09T20:41:43;96158.53;;;14.25;91.91
4598;BME280;62772;48.646;8.906;2022-09-09T20:46:49;96161.06;;;14.58;90.02
4598;BME280;62772;48.646;8.906;2022-09-09T20:51:51;96153.19;;;14.78;88.08
4598;BME280;62772;48.646;8.906;2022-09-09T20:56:53;96157.50;;;14.54;89.78
4598;BME280;62772;48.646;8.906;2022-09-09T21:01:57;96156.81;;;14.69;88.30
4598;BME280;62772;48.646;8.906;2022-09-09T21:07:00;96148.56;;;14.38;91.16
4598;BME280;62772;48.646;8.906;2022-09-09T21:12:02;96157.84;;;14.28;92.11
4598;BME280;62772;48.646;8.906;2022-09-09T21:17:05;96158.00;;;14.19;93.51
4598;BME280;62772;48.646;8.906;2022-09-09T21:22:06;96158.75;;;14.20;93.82
4598;BME280;62772;48.646;8.906;2022-09-09T21:27:07;96150.25;;;13.93;94.65
4598;BME280;62772;48.646;8.906;2022-09-09T21:32:10;96156.28;;;13.90;96.13
4598;BME280;62772;48.646;8.906;2022-09-09T21:37:11;96158.75;;;13.70;96.49
4598;BME280;62772;48.646;8.906;2022-09-09T21:42:11;96162.88;;;13.80;95.63
4598;BME280;62772;48.646;8.906;2022-09-09T21:47:16;96154.94;;;13.71;96.48
4598;BME280;62772;48.646;8.906;2022-09-09T21:52:16;96145.22;;;13.79;96.07
4598;BME280;62772;48.646;8.906;2022-09-09T21:57:17;96141.72;;;13.66;96.54
4598;BME280;62772;48.646;8.906;2022-09-09T22:02:20;96143.19;;;13.76;96.71
4598;BME280;62772;48.646;8.906;2022-09-09T22:07:21;96156.50;;;13.72;97.49
4598;BME280;62772;48.646;8.906;2022-09-09T22:12:22;96163.34;;;14.07;95.09
4598;BME280;62772;48.646;8.906;2022-09-09T22:17:25;96162.66;;;13.73;96.26
4598;BME280;62772;48.646;8.906;2022-09-09T22:22:26;96169.38;;;13.67;97.80
4598;BME280;62772;48.646;8.906;2022-09-09T22:27:27;96171.94;;;13.75;98.12
4598;BME280;62772;48.646;8.906;2022-09-09T22:32:30;96168.28;;;13.92;96.52
4598;BME280;62772;48.646;8.906;2022-09-09T22:37:31;96179.06;;;13.59;97.74
4598;BME280;62772;48.646;8.906;2022-09-09T22:42:31;96188.63;;;13.81;97.90
4598;BME280;62772;48.646;8.906;2022-09-09T22:47:37;96187.84;;;13.35;100.00
4598;BME280;62772;48.646;8.906;2022-09-09T22:52:40;96195.25;;;12.96;100.00
4598;BME280;62772;48.646;8.906;2022-09-09T22:57:40;96204.22;;;13.54;100.00
4598;BME280;62772;48.646;8.906;2022-09-09T23:02:44;96196.06;;;13.63;100.00
4598;BME280;62772;48.646;8.906;2022-09-09T23:07:48;96183.84;;;13.53;100.00
4598;BME280;62772;48.646;8.906;2022-09-09T23:12:48;96193.44;;;14.00;100.00
4598;BME280;62772;48.646;8.906;2022-09-09T23:17:52;96191.31;;;13.81;100.00
4598;BME280;62772;48.646;8.906;2022-09-09T23:22:54;96174.16;;;13.61;100.00
4598;BME280;62772;48.646;8.906;2022-09-09T23:27:55;96176.06;;;13.60;100.00
4598;BME280;62772;48.646;8.906;2022-09-09T23:33:00;96171.28;;;13.78;100.00
4598;BME280;62772;48.646;8.906;2022-09-09T23:38:00;96166.22;;;13.65;100.00
4598;BME280;62772;48.646;8.906;2022-09-09T23:43:01;96163.56;;;13.77;100.00
4598;BME280;62772;48.646;8.906;2022-09-09T23:48:08;96168.03;;;13.73;100.00
4598;BME280;62772;48.646;8.906;2022-09-09T23:53:08;96164.53;;;13.48;100.00
4598;BME280;62772;48.646;8.906;2022-09-09T23:58:11;96168.34;;;13.25;100.00
